Jeffers, MN (56145)

6:55 PM CST on January 28, 2015 (GMT -0600)
Sorenson Seed | Change Station
CLOSE
Current Station
Personal Weather Station
Location: Storden, MN
Elevation: 1404 ft
Nearby Weather Stations
Active Advisory: Wind Advisory

Elev 1404 ft 44.04 °N, 95.33 °W | Updated 16 seconds ago

Overcast
Overcast
32.1 °F
Feels Like 32 °F
N
0.0
Wind Variable Wind from WSW
Gusts 0.0 mph

Today
High -- | Low -- °F
--% Chance of Precip.
Yesterday
High -- | Low -- °F
Precip. -- in
7:42 AM 5:25 PM
Waxing Gibbous, 69% visible
Pressure 29.76 in
Visibility 2.0 miles
Clouds Overcast 600 ft
Windchill 32 °F
Dew Point 31 °F
Humidity 97%
Rainfall 0.00 in
Snow Depth Not available.
UV 0 out of 12
Pollen .90 out of 12
Air Quality Not available.
Flu Activity Not available.
METAR KMWM 290033Z AUTO 00000KT 2SM BR OVC006 01/00 A2976 RMK AO2

More Conditions Fewer Conditions

Pressure 29.76 in
Visibility 2.0 miles
Clouds Overcast 600 ft
Windchill 32 °F
Dew Point 31 °F
Humidity 97%
Rainfall 0.00 in
Snow Depth Not available.
UV 0 out of 12
Pollen .90 out of 12
Air Quality Not available.
Flu Activity Not available.
METAR KMWM 290033Z AUTO 00000KT 2SM BR OVC006 01/00 A2976 RMK AO2

More Conditions Fewer Conditions

10-Day Weather Forecast

Almanac

Astronomy

Jan. 28, 2015 Rise Set
Actual Time
Civil Twilight
Nautical Twilight
Astronomical Twilight
Moon
Length of Visible Light
Length of Day
Tomorrow will be .
, % of the Moon is Illuminated

Today's Extremes

State Highs State Lows

Community

WunderPhotos

Upload Photos

1,791,310 photos uploaded!

WunderBlogs® & News

Nearby

Air Quality

  Air Quality AQ Index Pollutant
Not available.

Snow Depth

Station Depth Elevation

Earthquake Activity

City Distance Mag. Time & Date
Minimum magnitude displayed is 2.5.

Coastal Water Temperatures

Place Temperature

Nearby Weather Stations